Accueil
METAR-TAF:

METAR-TAF

Aéroports :

Aéroport de Sion

Sion, Suisse

latitude: 46-13N, longitude: 007-20E, altitude: 482 m

Observation

Le bulletin a été fait il y a 33 minutes, à 22:20 UTC
Vent 4 kt de est/nord-est, variant entre nord-est et est/sud-est
Température 4°C
Humidité 70%
Pression 1001 hPa
Visibilité 10 km ou plus
Quelques nuages à une hauteur de 9500 ft
Nuages fragmentés à une hauteur de 10000 ft

METAR: LSGS 232220Z AUTO 07004KT 050V120 9999 FEW095 BKN100 04/M01 Q1001

Heure: 23:53 (22:53 UTC)

Prévision

Le bulletin a été fait il y a 8 heures et 28 minutes, à 14:25 UTC
Prévision valable du 23 à 15 UTC au 23 à 24 UTC
Vent 10 kt de ouest/sud-ouest
Visibilité 10 km ou plus
Nuages épars à une hauteur de 5000 ft
Probabilité 40% :
Temporairement
du 23 à 19 UTC au 23 à 21 UTC
averses de pluie,

TAF: LSGS 231425Z 2315/2324 25010KT 9999 SCT050 PROB40 TEMPO 2319/2321 SHRA

Observations et prévisions météorologiques de plus de 4000 aéroports (messages METAR et TAF).

Les stations disponibles sont représentées par des disques jaunes et rouges sur la carte.

Passer la souris dessus pour voir le nom de la station.

Cliquer dessus pour voir les observations et prévisions météorologiques.

Pour changer de carte: cliquez sur les boutons verts avec une croix noire pour zoomer, sur le bouton vert avec un tiret pour effectuer un zoom arrière, ou sur les flèches vertes pour les cartes adjacentes.


METAR-TAF: